Saturday, September 22, 2018, 10:40 PM EDT
Back to Local

KLEB, Lebanon Municipal Airport

Location: Lebanon, NH, United States Lat: 43.633
Local Time: 10:40 PM EDT ( 2:40 GMT) Lon: -72.3
Time Zone: US/Eastern Elev: 597 ft

Show me the last for .
Show Decoded

2018-09-22 21:53 METAR KLEB 230153Z 03003KT 10SM CLR 08/06 A3024 RMK AO2 SLP238 T00830056 =
2018-09-22 20:53 METAR KLEB 230053Z 16003KT 10SM CLR 08/05 A3023 RMK AO2 SLP234 T00830050 =
2018-09-22 19:53 METAR KLEB 222353Z 00000KT 10SM CLR 09/06 A3021 RMK AO2 SLP228 T00890061 10172
                 20089 51015 =
2018-09-22 18:53 METAR KLEB 222253Z 00000KT 10SM CLR 11/07 A3020 RMK AO2 SLP222 T01060067 =
2018-09-22 17:53 METAR KLEB 222153Z 30004KT 10SM CLR 16/04 A3018 RMK AO2 SLP216 T01560039 =
2018-09-22 16:53 METAR KLEB 222053Z 31009KT 10SM CLR 17/04 A3016 RMK AO2 SLP208 T01670039 50000 =
2018-09-22 15:53 METAR KLEB 221953Z 31008KT 10SM CLR 17/04 A3017 RMK AO2 SLP210 T01670039 =
2018-09-22 14:53 METAR KLEB 221853Z 31008KT 10SM CLR 16/04 A3017 RMK AO2 SLP210 T01610039 =
2018-09-22 13:53 METAR KLEB 221753Z 35006KT 10SM CLR 17/04 A3016 RMK AO2 SLP207 T01720044 10178
                 20156 51003 =
2018-09-22 12:53 METAR KLEB 221653Z 30010KT 10SM FEW043 17/05 A3016 RMK AO2 SLP207 T01720050 =
2018-09-22 11:53 METAR KLEB 221553Z 34011G19KT 10SM FEW039 16/04 A3016 RMK AO2 SLP208 T01610039 =
2018-09-22 10:53 METAR KLEB 221453Z 01009G17KT 10SM SCT037 16/05 A3015 RMK AO2 PRESRR SLP205
                 T01560050 53042 =
2018-09-22 09:53 METAR KLEB 221353Z 35012G19KT 10SM BKN042 16/07 A3011 RMK AO2 SLP189 T01560067 =
2018-09-22 08:53 METAR KLEB 221253Z 33016G21KT 10SM BKN040 17/07 A3007 RMK AO2 SLP178 T01670067 =
2018-09-22 07:53 METAR KLEB 221153Z 36012G18KT 10SM FEW040 BKN049 16/07 A3003 RMK AO2 SLP162
                 60001 70004 T01610072 10211 20161 51059 =
2018-09-22 06:53 METAR KLEB 221053Z 01011G19KT 330V030 10SM FEW040 SCT049 17/10 A2997 RMK AO2
                 PRESRR SLP143 T01720100 =
2018-09-22 05:53 METAR KLEB 220953Z 30009G19KT 10SM CLR 19/10 A2992 RMK AO2 PRESRR SLP123
                 T01890100 =
2018-09-22 04:53 METAR KLEB 220853Z AUTO 24008KT 10SM CLR 20/13 A2985 RMK AO2 WSHFT 0740 SLP100
                 60001 T02000128 53018 =
2018-09-22 04:00 METAR KLEB 220800Z AUTO 26007KT 210V340 10SM FEW030 FEW035 SCT050 20/17 A2982
                 RMK AO2 WSHFT 0740 PRESRR T02000172 =
2018-09-22 03:53 METAR KLEB 220753Z AUTO 19011KT 10SM FEW037 19/17 A2980 RMK AO2 WSHFT 0739
                 SLP085 T01890167 =
2018-09-22 02:53 METAR KLEB 220653Z AUTO 16008KT 10SM FEW038 FEW047 20/17 A2979 RMK AO2 RAE26
                 SLP079 P0001 T02000172 =
2018-09-22 02:29 METAR KLEB 220629Z AUTO 16008KT 10SM FEW015 SCT025 BKN046 19/17 A2978 RMK AO2
                 RAE26 P0001 T01940172 =
2018-09-22 01:53 METAR KLEB 220553Z AUTO 31005KT 9SM -RA FEW009 BKN026 OVC032 19/17 A2980 RMK AO2
                 RAB34 SLP083 P0000 60002 T01940172 10200 20189 55013 =
2018-09-22 01:09 METAR KLEB 220509Z AUTO 21007KT 10SM SCT009 OVC028 20/17 A2979 RMK AO2 T02000172
                 =
2018-09-22 00:53 METAR KLEB 220453Z AUTO 24005KT 10SM SCT010 OVC032 20/17 A2979 RMK AO2 RAB21E48
                 SLP079 P0001 T02000167 402000150 =
2018-09-22 00:00 METAR KLEB 220400Z AUTO 19013KT 10SM FEW010 FEW026 OVC038 19/17 A2980 RMK AO2
                 T01940167 =
2018-09-21 23:53 METAR KLEB 220353Z AUTO 19013KT 10SM SCT010 BKN025 OVC039 19/17 A2980 RMK AO2
                 RAB04E50 SLP082 P0001 T01940167 =
2018-09-21 23:38 METAR KLEB 220338Z AUTO 20012G20KT 9SM -RA SCT010 BKN025 OVC033 19/16 A2981 RMK
                 AO2 RAB04 P0001 T01940161 =
2018-09-21 22:53 METAR KLEB 220253Z AUTO 20008KT 10SM OVC010 19/16 A2983 RMK AO2 SLP096 T01940156
                 56015 =

Support USWX by starting your Amazon purchase here.